Time;durP1;ratioP1;P1;durP2;ratioP2;P2;SDS_P1;SDS_P2;PMS_P1;PMS_P2;Temp;Humidity;BMP_temperature;BMP_pressure;BME280_temperature;BME280_humidity;BME280_pressure;Samples;Min_cycle;Max_cycle;Signal;HPM_P1;HPM_P2
2022/12/17 13:08:18;;;;;;;53.50;22.30;;;;;;;-4.06;77.28;101001.59;4838494;29;20056;-84
2022/12/17 13:10:45;;;;;;;51.47;22.45;;;;;;;-4.06;76.87;101003.34;4850357;29;20048;-84
2022/12/17 13:13:14;;;;;;;50.67;22.02;;;;;;;-4.03;76.67;101006.75;4879381;29;20049;-84
2022/12/17 13:15:45;;;;;;;54.00;22.67;;;;;;;-4.06;77.03;101000.72;4871973;29;20056;-85
2022/12/17 13:18:28;;;;;;;56.60;22.45;;;;;;;-4.01;76.43;101002.41;4857672;29;20235;-85
2022/12/17 13:21:02;;;;;;;51.85;22.08;;;;;;;-4.14;76.94;101000.81;4862417;29;20053;-84
2022/12/17 13:23:32;;;;;;;52.33;22.27;;;;;;;-4.16;77.20;100998.22;4871489;29;20567;-85
2022/12/17 13:26:27;;;;;;;52.22;22.40;;;;;;;-4.11;77.08;101002.50;4886935;29;20195;-85
2022/12/17 13:28:54;;;;;;;52.40;23.33;;;;;;;-4.18;77.59;101004.28;4905502;28;20142;-85
2022/12/17 13:31:25;;;;;;;55.80;23.33;;;;;;;-4.13;77.00;101006.84;4907979;28;20046;-85
2022/12/17 13:34:05;;;;;;;53.15;23.02;;;;;;;-4.22;77.51;101003.47;4913416;28;20126;-84
2022/12/17 13:36:41;;;;;;;54.53;21.63;;;;;;;-4.26;77.71;101006.97;4985415;28;20040;-84
2022/12/17 13:39:33;;;;;;;50.72;21.98;;;;;;;-4.30;78.29;100999.22;5021766;28;20404;-84
2022/12/17 13:42:00;;;;;;;61.13;24.55;;;;;;;-4.26;77.74;100993.13;5015328;28;20064;-84
2022/12/17 13:44:37;;;;;;;57.05;23.92;;;;;;;-4.30;78.21;100992.31;5024563;28;20054;-84
2022/12/17 13:47:04;;;;;;;54.72;24.88;;;;;;;-4.28;78.00;100989.69;5005066;28;20107;-84
2022/12/17 13:49:31;;;;;;;59.00;24.75;;;;;;;-4.23;77.82;100991.38;5005127;28;20045;-84
2022/12/17 13:52:06;;;;;;;64.43;26.40;;;;;;;-4.35;78.42;100988.91;5002582;28;20072;-84
2022/12/17 13:54:37;;;;;;;70.85;29.38;;;;;;;-4.28;78.14;100995.72;5034961;28;20049;-84
2022/12/17 13:57:21;;;;;;;66.28;27.60;;;;;;;-4.40;78.06;100996.72;5011166;28;20124;-84
2022/12/17 13:59:52;;;;;;;68.35;29.17;;;;;;;-4.29;77.70;100998.34;4958969;28;20037;-84
2022/12/17 14:02:37;;;;;;;67.38;28.73;;;;;;;-4.38;77.73;101004.47;4998493;28;20052;-85
2022/12/17 14:05:06;;;;;;;67.90;29.67;;;;;;;-4.38;78.02;101009.66;4987687;28;20103;-85
2022/12/17 14:07:37;;;;;;;66.28;29.92;;;;;;;-4.40;77.77;101011.38;5033228;28;20496;-85
2022/12/17 14:10:11;;;;;;;62.05;27.80;;;;;;;-4.31;76.97;101002.69;4999521;28;20055;-85
2022/12/17 14:12:38;;;;;;;69.57;28.77;;;;;;;-4.31;77.08;101013.06;5001153;28;20053;-85
2022/12/17 14:15:13;;;;;;;65.32;27.23;;;;;;;-4.25;76.86;101007.81;4994349;28;20048;-86
2022/12/17 14:17:43;;;;;;;63.65;27.95;;;;;;;-4.25;77.00;101013.88;4984906;28;20099;-84
2022/12/17 14:20:14;;;;;;;59.15;27.73;;;;;;;-4.30;77.48;101009.59;4989624;28;20049;-84
2022/12/17 14:22:44;;;;;;;48.70;23.17;;;;;;;-4.24;76.98;101015.59;4988375;28;20328;-85
2022/12/17 14:25:19;;;;;;;52.95;22.33;;;;;;;-4.30;77.72;101025.16;5025527;28;20142;-85
2022/12/17 14:28:18;;;;;;;59.85;26.73;;;;;;;-4.40;77.44;101030.44;5003628;28;20056;-85
2022/12/17 14:30:45;;;;;;;65.20;26.92;;;;;;;-4.37;77.48;101024.34;4955448;28;20063;-84
2022/12/17 14:33:33;;;;;;;57.28;24.80;;;;;;;-4.40;77.25;101025.22;4978402;28;20114;-84
2022/12/17 14:36:04;;;;;;;60.05;25.83;;;;;;;-4.41;77.07;101026.09;5008409;28;20057;-84
2022/12/17 14:38:31;;;;;;;60.40;25.48;;;;;;;-4.40;76.89;101027.84;4936668;28;20125;-84
2022/12/17 14:44:00;;;;;;;68.03;26.17;;;;;;;-4.32;76.93;101029.50;4920117;28;20585;-85
2022/12/17 14:46:29;;;;;;;51.65;23.63;;;;;;;-4.36;77.30;101037.28;4960180;28;20117;-84
2022/12/17 14:49:00;;;;;;;64.45;23.30;;;;;;;-4.37;77.25;101024.34;4931008;28;20057;-85
2022/12/17 14:51:29;;;;;;;55.78;24.23;;;;;;;-4.42;77.89;101028.72;4943483;28;20046;-84
2022/12/17 14:54:28;;;;;;;59.72;24.58;;;;;;;-4.46;77.37;101030.44;4974883;28;20054;-84
2022/12/17 14:56:57;;;;;;;65.57;27.20;;;;;;;-4.39;77.35;101033.88;4919238;28;20105;-85
2022/12/17 14:59:34;;;;;;;65.13;27.52;;;;;;;-4.26;78.64;101039.81;4963358;28;20065;-85
2022/12/17 15:02:22;;;;;;;69.50;27.50;;;;;;;-4.46;77.36;101027.00;4930646;28;20095;-84
2022/12/17 15:04:50;;;;;;;56.92;26.20;;;;;;;-4.47;77.45;101035.66;4917181;28;20138;-85
2022/12/17 15:07:24;;;;;;;55.70;23.35;;;;;;;-4.46;77.42;101042.56;4961963;28;20046;-85
2022/12/17 15:09:52;;;;;;;48.58;20.85;;;;;;;-4.45;77.08;101044.28;4980807;28;20409;-87
2022/12/17 15:12:20;;;;;;;51.90;22.50;;;;;;;-4.50;76.83;101046.91;5002828;28;20102;-86
2022/12/17 15:14:47;;;;;;;46.33;21.35;;;;;;;-4.59;77.28;101047.81;5035053;28;20496;-86
2022/12/17 15:17:15;;;;;;;44.92;20.38;;;;;;;-4.61;77.52;101039.19;5036809;28;20064;-86
2022/12/17 15:19:42;;;;;;;46.15;21.13;;;;;;;-4.52;77.22;101050.38;5000721;28;20100;-86
2022/12/17 15:22:16;;;;;;;43.80;19.13;;;;;;;-4.60;77.08;101042.66;4983236;28;20519;-85
2022/12/17 15:24:44;;;;;;;40.08;17.48;;;;;;;-4.63;77.02;101050.44;5036146;28;20049;-85
2022/12/17 15:27:15;;;;;;;47.00;21.58;;;;;;;-4.67;77.72;101048.75;5008917;28;20460;-85
2022/12/17 15:29:43;;;;;;;53.90;22.37;;;;;;;-4.62;77.58;101052.19;4989293;28;20044;-86
2022/12/17 15:32:21;;;;;;;42.85;20.58;;;;;;;-4.74;76.66;101055.69;5031682;28;20770;-86
2022/12/17 15:34:49;;;;;;;51.83;22.50;;;;;;;-4.78;76.74;101056.59;4971784;28;21200;-86
2022/12/17 15:37:16;;;;;;;52.83;23.92;;;;;;;-4.79;76.76;101054.88;5003407;28;20049;-87
2022/12/17 15:39:50;;;;;;;55.38;23.38;;;;;;;-4.85;77.12;101058.34;4970070;28;20069;-85
2022/12/17 15:45:02;;;;;;;45.80;21.52;;;;;;;-4.82;77.04;101058.34;5002304;28;20111;-83
2022/12/17 15:47:29;;;;;;;50.60;21.77;;;;;;;-4.81;77.68;101060.06;5032431;28;20076;-83
2022/12/17 15:49:55;;;;;;;50.75;22.30;;;;;;;-4.75;77.57;101068.69;5006016;28;20045;-81
2022/12/17 15:52:36;;;;;;;50.72;21.90;;;;;;;-4.80;77.64;101063.53;4990216;28;20045;-82
2022/12/17 15:55:03;;;;;;;49.97;21.88;;;;;;;-4.81;78.01;101062.66;4993163;28;20052;-81
2022/12/17 15:57:30;;;;;;;54.08;21.15;;;;;;;-4.78;77.72;101056.59;5009222;28;20542;-81
2022/12/17 15:59:57;;;;;;;57.15;23.42;;;;;;;-4.84;78.18;101064.41;4993823;28;20046;-81
2022/12/17 16:02:24;;;;;;;58.63;22.30;;;;;;;-4.85;77.67;101062.69;4996664;28;20129;-81
2022/12/17 16:04:51;;;;;;;49.97;20.73;;;;;;;-4.86;77.71;101067.00;5008542;28;20052;-80
2022/12/17 16:07:18;;;;;;;42.25;19.55;;;;;;;-4.87;77.64;101079.97;5020288;28;20068;-81
2022/12/17 16:09:45;;;;;;;47.88;19.20;;;;;;;-4.95;78.12;101074.81;5033547;28;20512;-81
2022/12/17 16:12:12;;;;;;;48.60;21.05;;;;;;;-4.96;78.49;101078.28;4985747;28;20151;-81
2022/12/17 16:14:38;;;;;;;45.50;19.50;;;;;;;-4.98;77.71;101074.84;4970337;28;20577;-81
2022/12/17 16:17:05;;;;;;;44.50;19.63;;;;;;;-5.04;77.38;101083.50;5003322;28;20620;-81
2022/12/17 16:19:32;;;;;;;42.05;19.17;;;;;;;-5.02;77.21;101075.72;5035667;28;20129;-80
2022/12/17 16:21:59;;;;;;;49.72;20.30;;;;;;;-5.09;76.62;101081.78;4987745;28;20072;-81
2022/12/17 16:24:25;;;;;;;47.60;18.88;;;;;;;-5.14;76.09;101078.34;4992590;28;20394;-81
2022/12/17 16:26:52;;;;;;;43.30;19.67;;;;;;;-5.21;76.22;101080.13;5005721;28;20114;-81
2022/12/17 16:29:19;;;;;;;40.92;19.20;;;;;;;-5.22;76.38;101074.94;4979322;28;20484;-81
2022/12/17 16:31:46;;;;;;;39.58;17.92;;;;;;;-5.22;76.55;101075.78;5002628;28;20065;-82
2022/12/17 16:34:13;;;;;;;41.47;17.95;;;;;;;-5.19;76.26;101075.81;5007031;28;20116;-81
2022/12/17 16:36:40;;;;;;;44.30;18.73;;;;;;;-5.27;76.96;101077.53;5023507;28;20366;-81
2022/12/17 16:39:07;;;;;;;43.85;18.50;;;;;;;-5.24;76.91;101073.22;4972321;28;20065;-83
2022/12/17 16:41:34;;;;;;;47.25;20.40;;;;;;;-5.19;76.44;101069.75;4988692;28;20057;-81
2022/12/17 16:44:01;;;;;;;51.28;21.63;;;;;;;-5.20;75.99;101073.22;5010990;28;20064;-81
2022/12/17 16:46:31;;;;;;;57.67;24.20;;;;;;;-5.21;75.71;101084.44;4993807;28;20132;-82
2022/12/17 16:49:06;;;;;;;61.80;27.05;;;;;;;-5.17;76.40;101079.22;4993389;28;20575;-82
2022/12/17 16:51:33;;;;;;;53.85;25.35;;;;;;;-5.16;76.91;101090.47;5004126;28;21110;-81
2022/12/17 16:54:04;;;;;;;51.65;24.67;;;;;;;-5.16;76.93;101095.66;5014189;28;20553;-81
2022/12/17 16:56:34;;;;;;;57.42;26.13;;;;;;;-5.13;76.88;101091.31;5006874;28;20056;-81
2022/12/17 16:59:07;;;;;;;53.65;25.52;;;;;;;-5.16;76.38;101088.72;5008812;28;20159;-81
2022/12/17 17:01:34;;;;;;;54.03;22.95;;;;;;;-5.22;76.06;101096.50;5005245;28;20474;-82
2022/12/17 17:04:03;;;;;;;56.28;23.20;;;;;;;-5.29;76.20;101103.44;4987483;28;20220;-81
2022/12/17 17:06:30;;;;;;;59.95;26.70;;;;;;;-5.25;76.46;101097.38;5017977;28;20129;-83
2022/12/17 17:09:02;;;;;;;56.65;24.88;;;;;;;-5.29;77.24;101105.16;5007905;28;20049;-81
2022/12/17 17:11:29;;;;;;;53.42;24.48;;;;;;;-5.27;76.75;101106.03;5003557;28;20045;-81
2022/12/17 17:13:56;;;;;;;56.88;24.67;;;;;;;-5.18;75.74;101102.56;5038757;28;20053;-81
2022/12/17 17:16:23;;;;;;;54.10;23.15;;;;;;;-5.41;76.39;101105.22;5004029;28;20040;-81
2022/12/17 17:18:51;;;;;;;46.08;21.15;;;;;;;-5.41;76.15;101118.16;4986475;28;20042;-81
2022/12/17 17:21:17;;;;;;;53.92;22.10;;;;;;;-5.39;76.25;101106.94;5019180;28;20052;-82
2022/12/17 17:23:48;;;;;;;51.15;22.83;;;;;;;-5.31;76.72;101112.09;5000389;28;20431;-81
2022/12/17 17:26:16;;;;;;;59.28;23.88;;;;;;;-5.39;76.63;101112.09;4990666;28;20059;-81
2022/12/17 17:28:44;;;;;;;50.72;22.85;;;;;;;-5.43;76.93;101122.47;5004935;28;20077;-82
2022/12/17 17:31:12;;;;;;;55.97;22.67;;;;;;;-5.45;76.46;101125.91;5020879;28;20591;-82
2022/12/17 17:33:42;;;;;;;55.83;23.05;;;;;;;-5.45;76.13;101131.09;5022982;28;20131;-82
2022/12/17 17:36:14;;;;;;;56.25;24.60;;;;;;;-5.56;75.93;101132.84;5020956;28;20037;-82
2022/12/17 17:38:41;;;;;;;55.35;22.50;;;;;;;-5.54;75.80;101138.03;5021840;28;20489;-81
2022/12/17 17:41:11;;;;;;;49.90;23.08;;;;;;;-5.51;75.62;101133.69;5019481;28;20627;-82
2022/12/17 17:43:38;;;;;;;53.47;22.50;;;;;;;-5.58;76.04;101139.75;5036075;28;20464;-82
2022/12/17 17:46:10;;;;;;;48.97;22.40;;;;;;;-5.56;75.94;101140.59;5001643;28;20054;-82
2022/12/17 17:48:37;;;;;;;55.00;22.98;;;;;;;-5.60;75.83;101144.03;4997565;28;20059;-82
2022/12/17 17:51:13;;;;;;;46.95;21.17;;;;;;;-5.58;75.65;101147.50;5037467;28;20040;-81
2022/12/17 17:53:45;;;;;;;44.55;20.85;;;;;;;-5.59;75.60;101143.19;4988477;28;20045;-82
2022/12/17 17:56:14;;;;;;;55.42;22.60;;;;;;;-5.63;74.92;101146.66;4993017;28;20041;-81
2022/12/17 17:58:46;;;;;;;44.45;21.38;;;;;;;-5.59;75.24;101147.53;4992781;28;20067;-82
2022/12/17 18:01:18;;;;;;;48.05;21.65;;;;;;;-5.65;75.08;101153.53;5004324;28;20409;-81
2022/12/17 18:03:46;;;;;;;53.95;21.10;;;;;;;-5.71;74.99;101148.38;4990661;28;20072;-81
2022/12/17 18:06:13;;;;;;;47.63;21.80;;;;;;;-5.59;75.35;101158.72;5005776;28;20639;-81
2022/12/17 18:08:41;;;;;;;49.50;20.70;;;;;;;-5.68;75.49;101159.56;5019861;28;20094;-82
2022/12/17 18:11:11;;;;;;;46.63;21.27;;;;;;;-5.71;75.28;101158.72;5014238;28;20493;-83
2022/12/17 18:13:56;;;;;;;48.58;21.88;;;;;;;-5.68;75.46;101162.16;4996444;28;20492;-82
2022/12/17 18:16:37;;;;;;;52.08;22.52;;;;;;;-5.75;75.46;101163.06;4991269;28;20176;-82
2022/12/17 18:19:12;;;;;;;49.58;21.02;;;;;;;-5.75;75.69;101162.16;4987368;28;20041;-82
2022/12/17 18:21:40;;;;;;;47.63;19.42;;;;;;;-5.70;75.81;101160.44;4942018;28;20048;-82
2022/12/17 18:24:20;;;;;;;44.28;20.17;;;;;;;-5.63;75.85;101162.16;5004837;28;20131;-82
2022/12/17 18:26:48;;;;;;;45.13;19.58;;;;;;;-5.66;75.11;101162.19;5018850;28;20048;-81
2022/12/17 18:29:19;;;;;;;49.20;20.88;;;;;;;-5.62;74.94;101157.84;5004827;28;20128;-81
2022/12/17 18:31:46;;;;;;;49.03;21.50;;;;;;;-5.75;74.66;101155.28;5033052;28;20062;-81
2022/12/17 18:34:19;;;;;;;43.50;20.42;;;;;;;-5.74;74.49;101158.75;5004456;28;20056;-83
2022/12/17 18:36:47;;;;;;;47.15;22.00;;;;;;;-5.71;75.07;101171.66;5004321;28;20535;-80
2022/12/17 18:39:24;;;;;;;50.13;21.98;;;;;;;-5.67;74.70;101165.63;5018677;28;20828;-82
2022/12/17 18:44:41;;;;;;;61.50;25.30;;;;;;;-5.75;74.20;101169.94;4984782;28;20052;-80
2022/12/17 18:47:09;;;;;;;62.45;26.63;;;;;;;-5.63;74.29;101172.53;5033509;28;20560;-81
2022/12/17 18:49:37;;;;;;;57.60;25.98;;;;;;;-5.67;74.96;101179.44;5017207;28;20048;-81
2022/12/17 18:52:04;;;;;;;62.25;25.98;;;;;;;-5.73;75.19;101182.00;5011355;28;20088;-81
2022/12/17 18:54:32;;;;;;;61.00;26.73;;;;;;;-5.78;75.39;101175.13;4988108;28;20049;-81
2022/12/17 18:57:00;;;;;;;60.90;26.08;;;;;;;-5.82;74.70;101181.16;4985936;28;20069;-82
2022/12/17 18:59:29;;;;;;;61.25;26.38;;;;;;;-5.87;74.75;101172.53;5018567;28;20063;-81
2022/12/17 19:01:56;;;;;;;65.47;24.65;;;;;;;-5.64;74.26;101180.31;4999216;28;20068;-81
2022/12/17 19:04:24;;;;;;;55.50;25.45;;;;;;;-5.78;73.90;101180.28;5011704;28;20045;-81
2022/12/17 19:06:52;;;;;;;50.95;23.55;;;;;;;-5.85;74.28;101176.84;5008547;28;20076;-81
2022/12/17 19:09:28;;;;;;;54.15;24.88;;;;;;;-5.89;74.69;101169.94;5038087;28;20515;-81
2022/12/17 19:11:55;;;;;;;49.63;23.98;;;;;;;-5.80;74.06;101179.41;4998312;28;20059;-80
2022/12/17 19:14:23;;;;;;;60.17;26.23;;;;;;;-5.86;73.78;101182.00;5007883;28;20046;-81
2022/12/17 19:16:53;;;;;;;56.30;25.23;;;;;;;-5.85;73.90;101183.72;4989141;28;20044;-81
2022/12/17 19:19:21;;;;;;;54.92;22.70;;;;;;;-5.81;74.79;101185.47;5003692;28;20525;-81
2022/12/17 19:21:50;;;;;;;52.13;23.30;;;;;;;-5.75;74.78;101182.88;5032843;28;20078;-80
2022/12/17 19:24:19;;;;;;;44.80;19.73;;;;;;;-5.87;74.99;101188.06;5006032;28;20065;-81
2022/12/17 19:26:47;;;;;;;38.78;18.60;;;;;;;-5.87;75.00;101186.34;5041677;28;20049;-80
2022/12/17 19:29:15;;;;;;;40.47;20.05;;;;;;;-5.81;75.24;101186.31;5002493;28;20179;-81
2022/12/17 19:31:42;;;;;;;42.80;20.05;;;;;;;-5.84;75.48;101198.41;5001257;28;20045;-81
2022/12/17 19:34:12;;;;;;;40.15;18.38;;;;;;;-5.78;75.22;101194.06;5040306;28;20057;-81
2022/12/17 19:36:40;;;;;;;42.20;19.30;;;;;;;-5.76;75.04;101194.09;5018479;28;22803;-81
2022/12/17 19:39:09;;;;;;;38.75;18.13;;;;;;;-5.77;75.33;101193.25;4967537;28;20111;-81
2022/12/17 19:41:36;;;;;;;41.05;17.60;;;;;;;-5.83;75.41;101198.38;5033960;28;20481;-81
2022/12/17 19:44:06;;;;;;;35.50;16.08;;;;;;;-5.57;75.57;101190.66;5036941;28;20072;-81
2022/12/17 19:46:34;;;;;;;41.05;19.33;;;;;;;-5.75;75.46;101186.34;5033002;28;20052;-80
2022/12/17 19:49:01;;;;;;;33.60;16.25;;;;;;;-5.58;75.42;101188.91;5002421;28;20060;-83
2022/12/17 19:51:29;;;;;;;46.97;19.40;;;;;;;-5.54;75.22;101197.56;5001393;28;20580;-81
2022/12/17 19:53:56;;;;;;;44.72;20.65;;;;;;;-5.67;76.15;101194.97;4989670;28;20067;-81
2022/12/17 19:56:30;;;;;;;42.13;18.25;;;;;;;-5.65;75.49;101201.84;5011387;28;20499;-81
2022/12/17 19:59:00;;;;;;;44.50;18.58;;;;;;;-5.77;75.98;101203.59;5019493;28;20151;-81
2022/12/17 20:01:38;;;;;;;40.05;17.45;;;;;;;-5.79;75.67;101200.13;5017244;28;20045;-81
2022/12/17 20:04:05;;;;;;;45.45;20.08;;;;;;;-5.81;75.96;101201.84;5017850;28;20048;-81
2022/12/17 20:06:33;;;;;;;43.25;18.08;;;;;;;-5.87;75.57;101201.00;4981850;28;20397;-81
2022/12/17 20:09:03;;;;;;;39.13;17.67;;;;;;;-5.87;75.10;101201.00;5007966;28;20671;-81
2022/12/17 20:11:32;;;;;;;36.42;15.85;;;;;;;-5.94;75.12;101197.56;5023206;28;20042;-80
2022/12/17 20:14:14;;;;;;;32.83;15.93;;;;;;;-5.90;76.12;101199.28;4999686;28;20050;-81
2022/12/17 20:16:49;;;;;;;45.05;17.40;;;;;;;-5.89;76.04;101201.84;4995463;28;20539;-81
2022/12/17 20:19:18;;;;;;;36.97;16.13;;;;;;;-5.86;76.19;101198.41;4989158;28;20477;-81
2022/12/17 20:21:46;;;;;;;42.13;16.75;;;;;;;-5.87;75.74;101203.59;5033051;28;20056;-82
2022/12/17 20:24:13;;;;;;;36.97;17.05;;;;;;;-5.80;75.81;101201.00;5040989;28;20559;-81
2022/12/17 20:26:40;;;;;;;41.60;17.50;;;;;;;-5.85;75.72;101204.41;5021940;28;20042;-81
2022/12/17 20:29:08;;;;;;;36.85;16.58;;;;;;;-5.91;75.61;101206.13;4992587;28;20041;-82
2022/12/17 20:31:35;;;;;;;37.03;17.55;;;;;;;-5.96;75.25;101207.88;5004454;28;20043;-81
2022/12/17 20:34:04;;;;;;;41.67;18.48;;;;;;;-5.96;75.30;101214.78;5009892;28;20052;-81
2022/12/17 20:36:31;;;;;;;38.00;18.55;;;;;;;-5.95;74.54;101204.47;5027913;28;20077;-81
2022/12/17 20:38:58;;;;;;;46.75;19.55;;;;;;;-5.95;74.89;101203.59;5022036;28;20049;-84
2022/12/17 20:41:27;;;;;;;38.45;17.40;;;;;;;-6.06;74.74;101200.97;5004221;28;20056;-80
2022/12/17 20:43:54;;;;;;;39.20;17.08;;;;;;;-6.10;75.03;101201.84;5013634;28;20052;-81
2022/12/17 20:46:22;;;;;;;37.00;17.38;;;;;;;-6.09;75.25;101203.56;5042867;28;20405;-81
2022/12/17 20:48:50;;;;;;;39.05;18.00;;;;;;;-6.13;75.85;101207.00;5014436;28;20562;-82
2022/12/17 20:51:22;;;;;;;38.08;18.58;;;;;;;-6.05;76.14;101210.47;5021561;28;20124;-80
2022/12/17 20:53:50;;;;;;;36.42;18.20;;;;;;;-6.17;75.08;101216.47;4939590;28;20518;-81
2022/12/17 20:56:21;;;;;;;37.25;17.85;;;;;;;-6.14;75.35;101213.03;4967564;28;20623;-81
2022/12/17 20:58:54;;;;;;;41.28;18.95;;;;;;;-6.23;74.77;101221.66;4979235;28;20054;-81
2022/12/17 21:01:22;;;;;;;40.05;17.88;;;;;;;-6.13;74.38;101223.41;4935952;28;20434;-80
2022/12/17 21:03:50;;;;;;;40.85;18.27;;;;;;;-6.10;75.46;101216.50;4966047;28;20497;-81
2022/12/17 21:06:25;;;;;;;37.30;18.50;;;;;;;-6.14;75.97;101219.06;4964451;28;20050;-81
2022/12/17 21:08:53;;;;;;;38.67;17.88;;;;;;;-6.13;74.89;101215.66;4957098;28;20082;-80
2022/12/17 21:11:23;;;;;;;37.53;17.58;;;;;;;-5.94;75.20;101219.09;4979448;28;20042;-80
2022/12/17 21:13:50;;;;;;;40.85;17.55;;;;;;;-5.95;75.47;101224.31;4965700;28;20093;-81
2022/12/17 21:16:22;;;;;;;47.35;18.10;;;;;;;-5.76;75.41;101225.13;4967738;28;20050;-80
2022/12/17 21:18:50;;;;;;;38.35;18.30;;;;;;;-5.69;76.20;101216.53;4980846;28;20050;-80
2022/12/17 21:21:21;;;;;;;44.55;19.17;;;;;;;-5.71;76.18;101215.66;4964915;28;20093;-80
2022/12/17 21:23:49;;;;;;;39.60;18.58;;;;;;;-5.77;76.54;101220.84;4982691;28;20529;-80
2022/12/17 21:26:30;;;;;;;37.95;18.40;;;;;;;-5.72;76.98;101212.22;4990472;28;20048;-81
2022/12/17 21:28:57;;;;;;;37.70;18.92;;;;;;;-5.80;75.56;101210.47;5023903;28;20099;-81
2022/12/17 21:31:29;;;;;;;39.88;18.60;;;;;;;-5.87;75.43;101209.63;5028447;28;20046;-80
2022/12/17 21:33:58;;;;;;;41.63;19.67;;;;;;;-5.69;75.86;101217.38;5007284;28;20052;-80
2022/12/17 21:36:27;;;;;;;43.85;19.80;;;;;;;-5.64;76.48;101219.97;5005366;28;20070;-81
2022/12/17 21:38:53;;;;;;;44.35;20.08;;;;;;;-5.65;76.77;101231.16;5005619;28;20558;-81
2022/12/17 21:41:26;;;;;;;43.08;18.67;;;;;;;-5.61;76.65;101237.22;4989096;28;20116;-80
2022/12/17 21:43:54;;;;;;;40.80;18.17;;;;;;;-5.60;76.51;101238.94;5006958;28;20048;-80
2022/12/17 21:46:21;;;;;;;39.85;19.35;;;;;;;-5.59;76.62;101240.69;5008299;28;20091;-80
2022/12/17 21:48:48;;;;;;;37.65;18.35;;;;;;;-5.56;76.43;101249.28;5025189;28;20060;-81
2022/12/17 21:51:16;;;;;;;43.35;18.35;;;;;;;-5.61;76.87;101251.03;4985961;28;20055;-81
2022/12/17 21:53:43;;;;;;;45.45;19.10;;;;;;;-5.60;76.55;101255.31;5010959;28;20053;-80
2022/12/17 21:56:12;;;;;;;45.40;19.60;;;;;;;-5.76;76.67;101256.19;5005392;28;20041;-80
2022/12/17 21:58:40;;;;;;;38.30;17.95;;;;;;;-5.82;74.92;101246.69;5035702;28;20045;-81
2022/12/17 22:01:17;;;;;;;43.42;18.13;;;;;;;-5.95;75.12;101242.41;5001096;28;20052;-80
2022/12/17 22:03:46;;;;;;;36.92;17.05;;;;;;;-5.86;75.78;101244.94;5007240;28;20115;-80
2022/12/17 22:06:21;;;;;;;38.80;18.50;;;;;;;-5.98;74.82;101237.19;5019089;28;20309;-81
2022/12/17 22:08:49;;;;;;;41.20;18.77;;;;;;;-5.92;75.34;101237.19;5020121;28;20101;-80
2022/12/17 22:11:20;;;;;;;49.22;20.35;;;;;;;-5.88;75.93;101225.97;4986528;28;20503;-80
2022/12/17 22:14:09;;;;;;;39.63;19.00;;;;;;;-5.88;76.33;101220.81;5017089;28;20049;-80
2022/12/17 22:16:47;;;;;;;41.92;18.13;;;;;;;-5.86;76.18;101226.84;4963796;28;20119;-80
2022/12/17 22:19:18;;;;;;;44.13;19.10;;;;;;;-5.94;75.66;101232.03;5003869;28;20057;-80
2022/12/17 22:21:50;;;;;;;49.75;19.85;;;;;;;-5.97;74.66;101241.53;5016113;28;20045;-80
2022/12/17 22:24:24;;;;;;;41.83;17.77;;;;;;;-6.06;74.98;101233.75;5022098;28;20069;-81
2022/12/17 22:26:58;;;;;;;43.10;19.75;;;;;;;-6.04;74.76;101230.28;4993518;28;20045;-80
2022/12/17 22:35:00;;;;;;;42.58;19.35;;;;;;;-5.94;75.31;101238.94;4953065;28;20057;-80
2022/12/17 22:37:47;;;;;;;38.15;18.05;;;;;;;-5.92;75.55;101232.03;4951810;28;20049;-80
2022/12/17 22:40:34;;;;;;;44.33;18.85;;;;;;;-5.93;75.49;101231.16;4949055;28;20057;-80
2022/12/17 22:43:30;;;;;;;39.92;17.83;;;;;;;-6.07;75.23;101230.28;4963866;28;20046;-80
2022/12/17 22:46:16;;;;;;;44.60;18.95;;;;;;;-5.84;75.47;101232.88;4978774;28;20053;-80
2022/12/17 22:48:43;;;;;;;41.53;18.50;;;;;;;-5.96;75.02;101235.47;4978829;28;20054;-80
2022/12/17 22:51:10;;;;;;;48.53;21.48;;;;;;;-5.89;76.43;101240.63;4967595;28;20045;-80
2022/12/17 22:53:45;;;;;;;43.67;19.55;;;;;;;-5.92;75.46;101250.13;4966349;28;20484;-80
2022/12/17 22:56:12;;;;;;;49.33;20.70;;;;;;;-5.77;75.81;101257.06;4966532;28;20080;-80
2022/12/17 22:58:59;;;;;;;48.17;21.38;;;;;;;-5.74;76.47;101257.91;4966895;28;20141;-80
2022/12/17 23:01:25;;;;;;;48.10;21.75;;;;;;;-5.67;76.50;101251.03;4996637;28;20046;-81
2022/12/17 23:03:54;;;;;;;50.50;20.35;;;;;;;-5.59;76.01;101251.88;4994773;28;20040;-80
2022/12/17 23:06:21;;;;;;;47.88;21.27;;;;;;;-5.59;76.01;101248.44;5038685;28;20041;-80
2022/12/17 23:08:47;;;;;;;51.85;21.73;;;;;;;-5.65;75.98;101249.28;4983349;28;20511;-81
2022/12/17 23:11:18;;;;;;;52.85;22.10;;;;;;;-5.81;75.90;101257.91;5014689;28;20093;-80
2022/12/17 23:13:47;;;;;;;;;;;;;;;-5.84;76.59;101255.31;5018815;28;20054;-82
2022/12/17 23:16:14;;;;;;;44.10;19.20;;;;;;;-6.02;75.14;101259.63;5012706;28;20024;-80
2022/12/17 23:18:42;;;;;;;49.20;20.15;;;;;;;-5.91;75.22;101252.69;5001909;28;20404;-80
2022/12/17 23:21:12;;;;;;;52.20;21.45;;;;;;;-5.75;76.02;101252.72;5019220;28;20044;-80
2022/12/17 23:23:38;;;;;;;45.30;19.92;;;;;;;-5.70;75.64;101240.66;5004675;28;20049;-81
2022/12/17 23:26:07;;;;;;;50.50;19.10;;;;;;;-5.77;75.13;101242.38;5020657;28;20188;-80
2022/12/17 23:28:34;;;;;;;47.30;20.67;;;;;;;-5.93;75.26;101236.34;5035978;28;20076;-80
2022/12/17 23:31:14;;;;;;;48.95;20.77;;;;;;;-6.01;75.08;101234.63;4988712;28;20076;-80
2022/12/17 23:33:41;;;;;;;52.35;21.27;;;;;;;-6.01;74.74;101242.38;4970243;28;20059;-80
2022/12/17 23:36:10;;;;;;;55.65;21.70;;;;;;;-5.93;75.70;101244.09;4992057;28;20051;-79
2022/12/17 23:38:37;;;;;;;45.95;20.67;;;;;;;-5.99;75.29;101232.91;5008062;28;20131;-80
2022/12/17 23:41:06;;;;;;;44.20;20.23;;;;;;;-6.14;75.15;101244.06;5015902;28;20501;-80
2022/12/17 23:43:33;;;;;;;51.33;20.75;;;;;;;-6.08;74.68;101243.22;4994025;28;20126;-80
2022/12/17 23:46:00;;;;;;;48.38;19.02;;;;;;;-6.18;75.46;101243.22;5012285;28;20092;-80
2022/12/17 23:48:32;;;;;;;57.13;22.48;;;;;;;-6.20;75.49;101244.06;4996854;28;20044;-80
2022/12/17 23:50:59;;;;;;;54.35;22.00;;;;;;;-6.24;75.22;101252.66;5023706;28;20140;-80
2022/12/17 23:53:27;;;;;;;43.17;19.20;;;;;;;-6.34;74.69;101256.94;4991977;28;20063;-79
2022/12/17 23:55:53;;;;;;;45.70;20.17;;;;;;;-6.25;75.51;101254.38;5005521;28;20484;-81
2022/12/17 23:58:20;;;;;;;38.92;18.08;;;;;;;-6.42;75.35;101264.66;5007880;28;20127;-80
